sensor_id;sensor_type;location;lat;lon;timestamp;P1;durP1;ratioP1;P2;durP2;ratioP2
75496;SDS011;64074;47.540;19.072;2022-10-13T00:03:20;38.70;;;23.25;;
75496;SDS011;64074;47.540;19.072;2022-10-13T00:06:45;37.97;;;21.98;;
75496;SDS011;64074;47.540;19.072;2022-10-13T00:09:59;36.83;;;21.77;;
75496;SDS011;64074;47.540;19.072;2022-10-13T00:13:26;34.47;;;20.80;;
75496;SDS011;64074;47.540;19.072;2022-10-13T00:16:43;37.63;;;22.80;;
75496;SDS011;64074;47.540;19.072;2022-10-13T00:20:08;37.92;;;23.02;;
75496;SDS011;64074;47.540;19.072;2022-10-13T00:23:14;36.28;;;21.20;;
75496;SDS011;64074;47.540;19.072;2022-10-13T00:26:28;38.20;;;22.65;;
75496;SDS011;64074;47.540;19.072;2022-10-13T00:29:33;37.30;;;21.83;;
75496;SDS011;64074;47.540;19.072;2022-10-13T00:32:43;34.40;;;20.60;;
75496;SDS011;64074;47.540;19.072;2022-10-13T00:35:54;31.95;;;20.42;;
75496;SDS011;64074;47.540;19.072;2022-10-13T00:39:06;35.38;;;20.58;;
75496;SDS011;64074;47.540;19.072;2022-10-13T00:42:14;37.47;;;22.02;;
75496;SDS011;64074;47.540;19.072;2022-10-13T00:45:27;35.67;;;22.00;;
75496;SDS011;64074;47.540;19.072;2022-10-13T00:48:41;36.37;;;21.57;;
75496;SDS011;64074;47.540;19.072;2022-10-13T00:51:47;39.85;;;22.08;;
75496;SDS011;64074;47.540;19.072;2022-10-13T00:55:00;37.45;;;21.70;;
75496;SDS011;64074;47.540;19.072;2022-10-13T00:58:16;37.65;;;22.58;;
75496;SDS011;64074;47.540;19.072;2022-10-13T01:01:35;37.47;;;23.30;;
75496;SDS011;64074;47.540;19.072;2022-10-13T01:04:52;38.93;;;22.47;;
75496;SDS011;64074;47.540;19.072;2022-10-13T01:08:05;40.60;;;23.38;;
75496;SDS011;64074;47.540;19.072;2022-10-13T01:11:54;35.38;;;20.85;;
75496;SDS011;64074;47.540;19.072;2022-10-13T01:15:33;35.38;;;21.45;;
75496;SDS011;64074;47.540;19.072;2022-10-13T01:23:05;33.80;;;20.70;;
75496;SDS011;64074;47.540;19.072;2022-10-13T01:40:30;35.70;;;20.90;;
75496;SDS011;64074;47.540;19.072;2022-10-13T01:44:01;36.03;;;21.27;;
75496;SDS011;64074;47.540;19.072;2022-10-13T01:47:20;32.25;;;19.77;;
75496;SDS011;64074;47.540;19.072;2022-10-13T01:50:32;33.42;;;20.20;;
75496;SDS011;64074;47.540;19.072;2022-10-13T01:53:54;32.20;;;19.77;;
75496;SDS011;64074;47.540;19.072;2022-10-13T01:57:31;34.53;;;20.87;;
75496;SDS011;64074;47.540;19.072;2022-10-13T02:12:36;37.33;;;21.20;;
75496;SDS011;64074;47.540;19.072;2022-10-13T02:15:57;35.47;;;21.33;;
75496;SDS011;64074;47.540;19.072;2022-10-13T02:19:11;34.35;;;21.02;;
75496;SDS011;64074;47.540;19.072;2022-10-13T02:22:45;36.40;;;22.40;;
75496;SDS011;64074;47.540;19.072;2022-10-13T02:25:52;38.67;;;23.73;;
75496;SDS011;64074;47.540;19.072;2022-10-13T02:29:00;36.00;;;22.07;;
75496;SDS011;64074;47.540;19.072;2022-10-13T02:32:15;34.20;;;21.50;;
75496;SDS011;64074;47.540;19.072;2022-10-13T02:35:26;36.42;;;21.83;;
75496;SDS011;64074;47.540;19.072;2022-10-13T02:38:41;41.88;;;22.67;;
75496;SDS011;64074;47.540;19.072;2022-10-13T02:41:55;35.13;;;21.60;;
75496;SDS011;64074;47.540;19.072;2022-10-13T02:44:59;32.40;;;20.80;;
75496;SDS011;64074;47.540;19.072;2022-10-13T02:48:09;34.87;;;21.07;;
75496;SDS011;64074;47.540;19.072;2022-10-13T02:51:20;36.45;;;21.63;;
75496;SDS011;64074;47.540;19.072;2022-10-13T02:54:56;34.08;;;20.75;;
75496;SDS011;64074;47.540;19.072;2022-10-13T02:58:05;35.67;;;21.42;;
75496;SDS011;64074;47.540;19.072;2022-10-13T03:01:19;37.40;;;21.53;;
75496;SDS011;64074;47.540;19.072;2022-10-13T03:04:23;37.13;;;21.07;;
75496;SDS011;64074;47.540;19.072;2022-10-13T03:07:29;39.03;;;21.17;;
75496;SDS011;64074;47.540;19.072;2022-10-13T03:10:39;41.08;;;22.00;;
75496;SDS011;64074;47.540;19.072;2022-10-13T03:14:00;38.65;;;21.92;;
75496;SDS011;64074;47.540;19.072;2022-10-13T03:17:20;40.17;;;22.00;;
75496;SDS011;64074;47.540;19.072;2022-10-13T03:20:55;39.23;;;21.00;;
75496;SDS011;64074;47.540;19.072;2022-10-13T03:24:07;36.88;;;21.65;;
75496;SDS011;64074;47.540;19.072;2022-10-13T03:27:18;37.00;;;21.38;;
75496;SDS011;64074;47.540;19.072;2022-10-13T03:30:49;36.45;;;22.15;;
75496;SDS011;64074;47.540;19.072;2022-10-13T03:33:59;37.10;;;21.60;;
75496;SDS011;64074;47.540;19.072;2022-10-13T03:37:34;38.90;;;21.97;;
75496;SDS011;64074;47.540;19.072;2022-10-13T03:40:59;39.97;;;21.38;;
75496;SDS011;64074;47.540;19.072;2022-10-13T03:44:11;38.70;;;22.55;;
75496;SDS011;64074;47.540;19.072;2022-10-13T03:47:16;36.13;;;21.48;;
75496;SDS011;64074;47.540;19.072;2022-10-13T03:50:26;39.60;;;22.23;;
75496;SDS011;64074;47.540;19.072;2022-10-13T03:53:36;36.90;;;21.90;;
75496;SDS011;64074;47.540;19.072;2022-10-13T03:56:53;36.47;;;21.40;;
75496;SDS011;64074;47.540;19.072;2022-10-13T04:00:16;33.58;;;20.90;;
75496;SDS011;64074;47.540;19.072;2022-10-13T04:03:46;37.78;;;21.98;;
75496;SDS011;64074;47.540;19.072;2022-10-13T04:07:09;42.93;;;22.00;;
75496;SDS011;64074;47.540;19.072;2022-10-13T04:10:31;35.63;;;21.03;;
75496;SDS011;64074;47.540;19.072;2022-10-13T04:13:46;34.05;;;21.02;;
75496;SDS011;64074;47.540;19.072;2022-10-13T04:16:50;35.05;;;21.10;;
75496;SDS011;64074;47.540;19.072;2022-10-13T04:19:57;32.50;;;20.17;;
75496;SDS011;64074;47.540;19.072;2022-10-13T04:23:07;36.03;;;22.17;;
75496;SDS011;64074;47.540;19.072;2022-10-13T04:26:29;37.93;;;22.30;;
75496;SDS011;64074;47.540;19.072;2022-10-13T04:29:55;38.20;;;22.63;;
75496;SDS011;64074;47.540;19.072;2022-10-13T04:33:15;42.78;;;22.75;;
75496;SDS011;64074;47.540;19.072;2022-10-13T04:36:39;36.08;;;21.45;;
75496;SDS011;64074;47.540;19.072;2022-10-13T04:39:51;36.83;;;21.30;;
75496;SDS011;64074;47.540;19.072;2022-10-13T04:43:18;35.40;;;20.87;;
75496;SDS011;64074;47.540;19.072;2022-10-13T04:46:35;34.92;;;20.27;;
75496;SDS011;64074;47.540;19.072;2022-10-13T04:49:55;38.42;;;20.85;;
75496;SDS011;64074;47.540;19.072;2022-10-13T04:53:15;41.47;;;21.75;;
75496;SDS011;64074;47.540;19.072;2022-10-13T04:56:35;34.93;;;20.60;;
75496;SDS011;64074;47.540;19.072;2022-10-13T04:59:50;39.20;;;23.93;;
75496;SDS011;64074;47.540;19.072;2022-10-13T05:03:00;40.50;;;21.23;;
75496;SDS011;64074;47.540;19.072;2022-10-13T05:06:18;32.25;;;20.10;;
75496;SDS011;64074;47.540;19.072;2022-10-13T05:09:40;42.60;;;21.55;;
75496;SDS011;64074;47.540;19.072;2022-10-13T05:13:01;36.83;;;20.93;;
75496;SDS011;64074;47.540;19.072;2022-10-13T05:19:53;36.88;;;21.20;;
75496;SDS011;64074;47.540;19.072;2022-10-13T05:23:03;35.45;;;21.30;;
75496;SDS011;64074;47.540;19.072;2022-10-13T05:26:15;38.20;;;21.38;;
75496;SDS011;64074;47.540;19.072;2022-10-13T05:29:44;41.57;;;21.43;;
75496;SDS011;64074;47.540;19.072;2022-10-13T05:33:19;38.40;;;21.47;;
75496;SDS011;64074;47.540;19.072;2022-10-13T05:36:38;36.72;;;21.50;;
75496;SDS011;64074;47.540;19.072;2022-10-13T05:39:48;41.63;;;24.58;;
75496;SDS011;64074;47.540;19.072;2022-10-13T05:47:33;48.13;;;23.07;;
75496;SDS011;64074;47.540;19.072;2022-10-13T05:51:01;41.63;;;21.07;;
75496;SDS011;64074;47.540;19.072;2022-10-13T05:57:27;34.72;;;20.30;;
75496;SDS011;64074;47.540;19.072;2022-10-13T06:04:40;34.70;;;19.80;;
75496;SDS011;64074;47.540;19.072;2022-10-13T06:07:59;52.77;;;26.13;;
75496;SDS011;64074;47.540;19.072;2022-10-13T06:11:08;37.20;;;21.02;;
75496;SDS011;64074;47.540;19.072;2022-10-13T06:18:36;36.40;;;21.15;;
75496;SDS011;64074;47.540;19.072;2022-10-13T06:22:03;41.87;;;21.23;;
75496;SDS011;64074;47.540;19.072;2022-10-13T06:25:13;38.27;;;20.53;;
75496;SDS011;64074;47.540;19.072;2022-10-13T06:28:38;37.25;;;21.33;;
75496;SDS011;64074;47.540;19.072;2022-10-13T06:36:29;37.97;;;21.08;;
75496;SDS011;64074;47.540;19.072;2022-10-13T06:39:44;39.23;;;22.80;;
75496;SDS011;64074;47.540;19.072;2022-10-13T06:43:03;43.27;;;22.63;;
75496;SDS011;64074;47.540;19.072;2022-10-13T06:46:25;50.47;;;22.23;;
75496;SDS011;64074;47.540;19.072;2022-10-13T06:49:56;41.25;;;21.02;;
75496;SDS011;64074;47.540;19.072;2022-10-13T06:53:17;44.95;;;21.52;;
75496;SDS011;64074;47.540;19.072;2022-10-13T06:56:34;45.70;;;23.50;;
75496;SDS011;64074;47.540;19.072;2022-10-13T07:00:01;41.37;;;24.67;;
75496;SDS011;64074;47.540;19.072;2022-10-13T07:07:02;36.92;;;22.10;;
75496;SDS011;64074;47.540;19.072;2022-10-13T07:10:28;39.55;;;22.38;;
75496;SDS011;64074;47.540;19.072;2022-10-13T07:13:52;42.07;;;23.57;;
75496;SDS011;64074;47.540;19.072;2022-10-13T07:17:04;39.37;;;21.63;;
75496;SDS011;64074;47.540;19.072;2022-10-13T07:24:46;45.50;;;21.60;;
75496;SDS011;64074;47.540;19.072;2022-10-13T07:27:58;47.88;;;22.23;;
75496;SDS011;64074;47.540;19.072;2022-10-13T07:35:05;40.67;;;21.93;;
75496;SDS011;64074;47.540;19.072;2022-10-13T07:38:20;43.40;;;22.60;;
75496;SDS011;64074;47.540;19.072;2022-10-13T07:41:34;38.58;;;23.40;;
75496;SDS011;64074;47.540;19.072;2022-10-13T07:53:41;37.87;;;22.10;;
75496;SDS011;64074;47.540;19.072;2022-10-13T08:09:39;36.50;;;22.33;;
75496;SDS011;64074;47.540;19.072;2022-10-13T08:12:55;36.00;;;21.17;;
75496;SDS011;64074;47.540;19.072;2022-10-13T08:20:33;32.40;;;20.90;;
75496;SDS011;64074;47.540;19.072;2022-10-13T08:23:57;34.95;;;21.58;;
75496;SDS011;64074;47.540;19.072;2022-10-13T08:45:29;33.93;;;21.67;;
75496;SDS011;64074;47.540;19.072;2022-10-13T08:49:01;32.13;;;20.53;;
75496;SDS011;64074;47.540;19.072;2022-10-13T09:01:34;23.27;;;15.63;;
75496;SDS011;64074;47.540;19.072;2022-10-13T09:25:19;24.30;;;12.80;;
75496;SDS011;64074;47.540;19.072;2022-10-13T09:47:38;19.17;;;11.47;;
75496;SDS011;64074;47.540;19.072;2022-10-13T09:56:24;19.92;;;13.38;;
75496;SDS011;64074;47.540;19.072;2022-10-13T10:07:00;19.90;;;11.60;;
75496;SDS011;64074;47.540;19.072;2022-10-13T10:10:31;19.23;;;11.23;;
75496;SDS011;64074;47.540;19.072;2022-10-13T11:05:22;18.20;;;10.00;;
75496;SDS011;64074;47.540;19.072;2022-10-13T11:30:55;14.40;;;9.90;;
75496;SDS011;64074;47.540;19.072;2022-10-13T11:34:29;16.42;;;9.27;;
75496;SDS011;64074;47.540;19.072;2022-10-13T11:41:24;16.27;;;9.33;;
75496;SDS011;64074;47.540;19.072;2022-10-13T11:51:24;16.33;;;8.75;;
75496;SDS011;64074;47.540;19.072;2022-10-13T11:54:45;13.73;;;9.05;;
75496;SDS011;64074;47.540;19.072;2022-10-13T11:58:07;13.60;;;8.80;;
75496;SDS011;64074;47.540;19.072;2022-10-13T12:05:52;20.85;;;12.25;;
75496;SDS011;64074;47.540;19.072;2022-10-13T12:13:18;14.93;;;9.07;;
75496;SDS011;64074;47.540;19.072;2022-10-13T12:16:36;17.73;;;10.20;;
75496;SDS011;64074;47.540;19.072;2022-10-13T12:19:56;15.90;;;8.60;;
75496;SDS011;64074;47.540;19.072;2022-10-13T12:23:16;14.52;;;9.40;;
75496;SDS011;64074;47.540;19.072;2022-10-13T12:26:35;15.45;;;9.82;;
75496;SDS011;64074;47.540;19.072;2022-10-13T12:41:33;19.77;;;9.73;;
75496;SDS011;64074;47.540;19.072;2022-10-13T12:51:35;21.80;;;11.73;;
75496;SDS011;64074;47.540;19.072;2022-10-13T13:07:34;18.40;;;10.63;;
75496;SDS011;64074;47.540;19.072;2022-10-13T13:19:34;21.35;;;10.55;;
75496;SDS011;64074;47.540;19.072;2022-10-13T13:22:47;19.02;;;9.88;;
75496;SDS011;64074;47.540;19.072;2022-10-13T13:29:23;17.47;;;9.60;;
75496;SDS011;64074;47.540;19.072;2022-10-13T13:32:38;17.40;;;9.87;;
75496;SDS011;64074;47.540;19.072;2022-10-13T13:35:51;20.58;;;13.65;;
75496;SDS011;64074;47.540;19.072;2022-10-13T13:38:56;18.83;;;11.18;;
75496;SDS011;64074;47.540;19.072;2022-10-13T13:42:11;15.20;;;10.40;;
75496;SDS011;64074;47.540;19.072;2022-10-13T13:45:20;24.47;;;14.53;;
75496;SDS011;64074;47.540;19.072;2022-10-13T13:48:30;17.80;;;10.43;;
75496;SDS011;64074;47.540;19.072;2022-10-13T13:51:37;18.00;;;12.15;;
75496;SDS011;64074;47.540;19.072;2022-10-13T13:54:46;14.20;;;9.15;;
75496;SDS011;64074;47.540;19.072;2022-10-13T13:58:00;16.33;;;10.00;;
75496;SDS011;64074;47.540;19.072;2022-10-13T14:01:10;14.97;;;9.37;;
75496;SDS011;64074;47.540;19.072;2022-10-13T14:04:22;18.57;;;10.77;;
75496;SDS011;64074;47.540;19.072;2022-10-13T14:07:38;18.25;;;10.05;;
75496;SDS011;64074;47.540;19.072;2022-10-13T14:10:46;25.42;;;15.98;;
75496;SDS011;64074;47.540;19.072;2022-10-13T14:13:59;19.50;;;11.60;;
75496;SDS011;64074;47.540;19.072;2022-10-13T14:17:22;15.60;;;9.93;;
75496;SDS011;64074;47.540;19.072;2022-10-13T14:20:41;13.33;;;9.57;;
75496;SDS011;64074;47.540;19.072;2022-10-13T14:24:06;19.60;;;9.57;;
75496;SDS011;64074;47.540;19.072;2022-10-13T14:27:27;17.02;;;10.50;;
75496;SDS011;64074;47.540;19.072;2022-10-13T14:30:52;21.38;;;10.02;;
75496;SDS011;64074;47.540;19.072;2022-10-13T14:34:08;20.43;;;10.10;;
75496;SDS011;64074;47.540;19.072;2022-10-13T14:37:20;17.10;;;9.93;;
75496;SDS011;64074;47.540;19.072;2022-10-13T14:40:56;19.05;;;11.65;;
75496;SDS011;64074;47.540;19.072;2022-10-13T14:44:19;18.13;;;9.77;;
75496;SDS011;64074;47.540;19.072;2022-10-13T14:47:33;24.20;;;10.45;;
75496;SDS011;64074;47.540;19.072;2022-10-13T14:50:47;15.87;;;11.10;;
75496;SDS011;64074;47.540;19.072;2022-10-13T14:54:23;17.03;;;9.90;;
75496;SDS011;64074;47.540;19.072;2022-10-13T14:57:45;16.83;;;10.27;;
75496;SDS011;64074;47.540;19.072;2022-10-13T15:01:18;17.05;;;10.13;;
75496;SDS011;64074;47.540;19.072;2022-10-13T15:04:28;17.17;;;9.80;;
75496;SDS011;64074;47.540;19.072;2022-10-13T15:07:51;17.10;;;10.43;;
75496;SDS011;64074;47.540;19.072;2022-10-13T15:11:15;20.53;;;10.70;;
75496;SDS011;64074;47.540;19.072;2022-10-13T15:14:25;15.95;;;10.70;;
75496;SDS011;64074;47.540;19.072;2022-10-13T15:17:57;20.92;;;11.35;;
75496;SDS011;64074;47.540;19.072;2022-10-13T15:21:21;23.27;;;13.63;;
75496;SDS011;64074;47.540;19.072;2022-10-13T15:24:43;15.53;;;10.50;;
75496;SDS011;64074;47.540;19.072;2022-10-13T15:28:05;17.57;;;10.90;;
75496;SDS011;64074;47.540;19.072;2022-10-13T15:31:28;16.40;;;10.20;;
75496;SDS011;64074;47.540;19.072;2022-10-13T15:34:52;17.55;;;11.70;;
75496;SDS011;64074;47.540;19.072;2022-10-13T15:38:15;16.83;;;10.25;;
75496;SDS011;64074;47.540;19.072;2022-10-13T15:41:36;18.20;;;10.67;;
75496;SDS011;64074;47.540;19.072;2022-10-13T15:44:55;16.50;;;10.53;;
75496;SDS011;64074;47.540;19.072;2022-10-13T15:48:21;18.17;;;11.77;;
75496;SDS011;64074;47.540;19.072;2022-10-13T15:51:45;20.13;;;10.15;;
75496;SDS011;64074;47.540;19.072;2022-10-13T15:54:58;17.73;;;10.55;;
75496;SDS011;64074;47.540;19.072;2022-10-13T15:58:25;17.87;;;10.87;;
75496;SDS011;64074;47.540;19.072;2022-10-13T16:01:45;18.07;;;10.30;;
75496;SDS011;64074;47.540;19.072;2022-10-13T16:05:11;22.55;;;11.38;;
75496;SDS011;64074;47.540;19.072;2022-10-13T16:08:24;18.60;;;10.43;;
75496;SDS011;64074;47.540;19.072;2022-10-13T16:11:38;16.50;;;11.18;;
75496;SDS011;64074;47.540;19.072;2022-10-13T16:14:42;22.70;;;10.67;;
75496;SDS011;64074;47.540;19.072;2022-10-13T16:17:51;22.37;;;11.13;;
75496;SDS011;64074;47.540;19.072;2022-10-13T16:24:27;15.60;;;10.43;;
75496;SDS011;64074;47.540;19.072;2022-10-13T16:27:37;21.60;;;11.13;;
75496;SDS011;64074;47.540;19.072;2022-10-13T16:31:02;17.93;;;10.97;;
75496;SDS011;64074;47.540;19.072;2022-10-13T16:34:22;23.43;;;11.33;;
75496;SDS011;64074;47.540;19.072;2022-10-13T16:37:41;23.20;;;11.70;;
75496;SDS011;64074;47.540;19.072;2022-10-13T16:40:50;22.48;;;12.43;;
75496;SDS011;64074;47.540;19.072;2022-10-13T16:43:59;24.60;;;12.90;;
75496;SDS011;64074;47.540;19.072;2022-10-13T16:47:08;26.43;;;13.50;;
75496;SDS011;64074;47.540;19.072;2022-10-13T16:50:29;22.57;;;12.87;;
75496;SDS011;64074;47.540;19.072;2022-10-13T16:53:40;26.92;;;14.63;;
75496;SDS011;64074;47.540;19.072;2022-10-13T16:56:50;30.58;;;15.18;;
75496;SDS011;64074;47.540;19.072;2022-10-13T17:00:04;28.38;;;13.48;;
75496;SDS011;64074;47.540;19.072;2022-10-13T17:03:26;24.73;;;13.27;;
75496;SDS011;64074;47.540;19.072;2022-10-13T17:06:36;25.47;;;14.00;;
75496;SDS011;64074;47.540;19.072;2022-10-13T17:10:14;24.02;;;13.75;;
75496;SDS011;64074;47.540;19.072;2022-10-13T17:13:35;24.50;;;13.48;;
75496;SDS011;64074;47.540;19.072;2022-10-13T17:16:53;25.60;;;12.15;;
75496;SDS011;64074;47.540;19.072;2022-10-13T17:20:15;18.33;;;11.13;;
75496;SDS011;64074;47.540;19.072;2022-10-13T17:23:37;21.27;;;11.83;;
75496;SDS011;64074;47.540;19.072;2022-10-13T17:27:01;26.70;;;15.43;;
75496;SDS011;64074;47.540;19.072;2022-10-13T17:30:11;25.92;;;15.77;;
75496;SDS011;64074;47.540;19.072;2022-10-13T17:33:40;25.33;;;15.52;;
75496;SDS011;64074;47.540;19.072;2022-10-13T17:37:06;23.20;;;13.97;;
75496;SDS011;64074;47.540;19.072;2022-10-13T17:40:32;33.87;;;14.93;;
75496;SDS011;64074;47.540;19.072;2022-10-13T17:43:43;26.42;;;13.90;;
75496;SDS011;64074;47.540;19.072;2022-10-13T17:47:11;23.20;;;12.45;;
75496;SDS011;64074;47.540;19.072;2022-10-13T17:50:27;25.35;;;12.65;;
75496;SDS011;64074;47.540;19.072;2022-10-13T17:53:32;26.57;;;13.37;;
75496;SDS011;64074;47.540;19.072;2022-10-13T17:56:39;25.10;;;13.60;;
75496;SDS011;64074;47.540;19.072;2022-10-13T17:59:41;23.42;;;13.38;;
75496;SDS011;64074;47.540;19.072;2022-10-13T18:02:45;25.33;;;13.32;;
75496;SDS011;64074;47.540;19.072;2022-10-13T18:05:53;23.30;;;14.13;;
75496;SDS011;64074;47.540;19.072;2022-10-13T18:09:04;23.43;;;13.87;;
75496;SDS011;64074;47.540;19.072;2022-10-13T18:12:25;25.30;;;14.07;;
75496;SDS011;64074;47.540;19.072;2022-10-13T18:15:45;23.63;;;13.77;;
75496;SDS011;64074;47.540;19.072;2022-10-13T18:19:08;26.13;;;14.15;;
75496;SDS011;64074;47.540;19.072;2022-10-13T18:22:40;29.17;;;14.02;;
75496;SDS011;64074;47.540;19.072;2022-10-13T18:25:53;27.37;;;14.03;;
75496;SDS011;64074;47.540;19.072;2022-10-13T18:29:13;28.47;;;13.83;;
75496;SDS011;64074;47.540;19.072;2022-10-13T18:32:33;28.45;;;14.32;;
75496;SDS011;64074;47.540;19.072;2022-10-13T18:35:55;23.98;;;13.80;;
75496;SDS011;64074;47.540;19.072;2022-10-13T18:39:14;26.58;;;14.18;;
75496;SDS011;64074;47.540;19.072;2022-10-13T18:42:33;27.47;;;14.03;;
75496;SDS011;64074;47.540;19.072;2022-10-13T18:46:05;28.27;;;14.27;;
75496;SDS011;64074;47.540;19.072;2022-10-13T18:49:18;29.00;;;15.30;;
75496;SDS011;64074;47.540;19.072;2022-10-13T18:52:25;27.00;;;14.90;;
75496;SDS011;64074;47.540;19.072;2022-10-13T18:55:34;26.55;;;15.43;;
75496;SDS011;64074;47.540;19.072;2022-10-13T18:58:58;26.77;;;15.93;;
75496;SDS011;64074;47.540;19.072;2022-10-13T19:02:14;26.57;;;15.63;;
75496;SDS011;64074;47.540;19.072;2022-10-13T19:05:36;27.65;;;15.80;;
75496;SDS011;64074;47.540;19.072;2022-10-13T19:08:47;33.60;;;16.20;;
75496;SDS011;64074;47.540;19.072;2022-10-13T19:11:50;27.20;;;16.00;;
75496;SDS011;64074;47.540;19.072;2022-10-13T19:15:01;29.17;;;16.30;;
75496;SDS011;64074;47.540;19.072;2022-10-13T19:18:24;27.50;;;16.03;;
75496;SDS011;64074;47.540;19.072;2022-10-13T19:21:40;27.98;;;16.58;;
75496;SDS011;64074;47.540;19.072;2022-10-13T19:25:19;30.65;;;16.50;;
75496;SDS011;64074;47.540;19.072;2022-10-13T19:28:30;23.30;;;15.57;;
75496;SDS011;64074;47.540;19.072;2022-10-13T19:31:47;28.47;;;16.43;;
75496;SDS011;64074;47.540;19.072;2022-10-13T19:35:05;29.17;;;15.90;;
75496;SDS011;64074;47.540;19.072;2022-10-13T19:38:28;32.13;;;16.25;;
75496;SDS011;64074;47.540;19.072;2022-10-13T19:41:41;27.38;;;15.48;;
75496;SDS011;64074;47.540;19.072;2022-10-13T19:44:52;32.88;;;16.17;;
75496;SDS011;64074;47.540;19.072;2022-10-13T19:48:00;29.77;;;16.37;;
75496;SDS011;64074;47.540;19.072;2022-10-13T19:51:11;29.73;;;16.93;;
75496;SDS011;64074;47.540;19.072;2022-10-13T19:54:33;37.00;;;16.80;;
75496;SDS011;64074;47.540;19.072;2022-10-13T19:57:53;30.55;;;16.83;;
75496;SDS011;64074;47.540;19.072;2022-10-13T20:01:17;32.25;;;17.35;;
75496;SDS011;64074;47.540;19.072;2022-10-13T20:04:38;32.80;;;18.20;;
75496;SDS011;64074;47.540;19.072;2022-10-13T20:07:59;34.03;;;18.13;;
75496;SDS011;64074;47.540;19.072;2022-10-13T20:11:23;28.63;;;17.30;;
75496;SDS011;64074;47.540;19.072;2022-10-13T20:14:50;33.40;;;19.75;;
75496;SDS011;64074;47.540;19.072;2022-10-13T20:18:09;35.30;;;18.75;;
75496;SDS011;64074;47.540;19.072;2022-10-13T20:21:29;32.60;;;19.73;;
75496;SDS011;64074;47.540;19.072;2022-10-13T20:24:51;34.37;;;18.63;;
75496;SDS011;64074;47.540;19.072;2022-10-13T20:28:11;34.50;;;18.42;;
75496;SDS011;64074;47.540;19.072;2022-10-13T20:31:31;34.65;;;19.80;;
75496;SDS011;64074;47.540;19.072;2022-10-13T20:34:53;30.95;;;19.42;;
75496;SDS011;64074;47.540;19.072;2022-10-13T20:38:14;35.73;;;19.60;;
75496;SDS011;64074;47.540;19.072;2022-10-13T20:41:35;31.57;;;18.93;;
75496;SDS011;64074;47.540;19.072;2022-10-13T20:45:04;33.60;;;19.98;;
75496;SDS011;64074;47.540;19.072;2022-10-13T20:48:17;31.95;;;19.80;;
75496;SDS011;64074;47.540;19.072;2022-10-13T20:51:54;33.05;;;19.10;;
75496;SDS011;64074;47.540;19.072;2022-10-13T20:55:03;31.50;;;19.40;;
75496;SDS011;64074;47.540;19.072;2022-10-13T20:58:24;33.60;;;20.07;;
75496;SDS011;64074;47.540;19.072;2022-10-13T21:01:49;32.78;;;18.58;;
75496;SDS011;64074;47.540;19.072;2022-10-13T21:04:56;30.15;;;18.05;;
75496;SDS011;64074;47.540;19.072;2022-10-13T21:08:04;31.73;;;18.50;;
75496;SDS011;64074;47.540;19.072;2022-10-13T21:11:09;35.93;;;18.80;;
75496;SDS011;64074;47.540;19.072;2022-10-13T21:14:13;31.80;;;19.30;;
75496;SDS011;64074;47.540;19.072;2022-10-13T21:17:22;33.00;;;19.50;;
75496;SDS011;64074;47.540;19.072;2022-10-13T21:20:29;32.70;;;19.90;;
75496;SDS011;64074;47.540;19.072;2022-10-13T21:23:39;33.10;;;20.52;;
75496;SDS011;64074;47.540;19.072;2022-10-13T21:26:48;35.87;;;20.53;;
75496;SDS011;64074;47.540;19.072;2022-10-13T21:29:58;34.90;;;20.20;;
75496;SDS011;64074;47.540;19.072;2022-10-13T21:33:12;34.92;;;20.83;;
75496;SDS011;64074;47.540;19.072;2022-10-13T21:36:35;36.05;;;20.60;;
75496;SDS011;64074;47.540;19.072;2022-10-13T21:39:46;36.90;;;21.60;;
75496;SDS011;64074;47.540;19.072;2022-10-13T21:43:03;36.30;;;20.53;;
75496;SDS011;64074;47.540;19.072;2022-10-13T21:46:07;34.60;;;21.27;;
75496;SDS011;64074;47.540;19.072;2022-10-13T21:49:24;36.78;;;21.80;;
75496;SDS011;64074;47.540;19.072;2022-10-13T21:52:34;39.33;;;22.10;;
75496;SDS011;64074;47.540;19.072;2022-10-13T21:55:51;38.90;;;22.65;;
75496;SDS011;64074;47.540;19.072;2022-10-13T21:59:20;36.03;;;21.83;;
75496;SDS011;64074;47.540;19.072;2022-10-13T22:02:29;42.17;;;23.73;;
75496;SDS011;64074;47.540;19.072;2022-10-13T22:05:52;42.63;;;22.88;;
75496;SDS011;64074;47.540;19.072;2022-10-13T22:09:15;39.20;;;22.58;;
75496;SDS011;64074;47.540;19.072;2022-10-13T22:12:28;41.10;;;23.30;;
75496;SDS011;64074;47.540;19.072;2022-10-13T22:15:33;39.97;;;24.17;;
75496;SDS011;64074;47.540;19.072;2022-10-13T22:18:43;39.93;;;24.17;;
75496;SDS011;64074;47.540;19.072;2022-10-13T22:21:57;40.95;;;24.33;;
75496;SDS011;64074;47.540;19.072;2022-10-13T22:25:24;49.58;;;26.92;;
75496;SDS011;64074;47.540;19.072;2022-10-13T22:28:44;41.80;;;22.52;;
75496;SDS011;64074;47.540;19.072;2022-10-13T22:32:06;39.00;;;23.77;;
75496;SDS011;64074;47.540;19.072;2022-10-13T22:35:31;42.90;;;23.80;;
75496;SDS011;64074;47.540;19.072;2022-10-13T22:38:54;42.95;;;23.13;;
75496;SDS011;64074;47.540;19.072;2022-10-13T22:42:12;43.20;;;24.25;;
75496;SDS011;64074;47.540;19.072;2022-10-13T22:45:33;36.65;;;22.35;;
75496;SDS011;64074;47.540;19.072;2022-10-13T22:48:53;38.43;;;22.23;;
75496;SDS011;64074;47.540;19.072;2022-10-13T22:52:15;45.93;;;23.03;;
75496;SDS011;64074;47.540;19.072;2022-10-13T22:55:41;40.60;;;24.85;;
75496;SDS011;64074;47.540;19.072;2022-10-13T22:59:04;40.10;;;24.38;;
75496;SDS011;64074;47.540;19.072;2022-10-13T23:02:12;40.67;;;23.05;;
75496;SDS011;64074;47.540;19.072;2022-10-13T23:05:17;41.83;;;23.60;;
75496;SDS011;64074;47.540;19.072;2022-10-13T23:08:31;39.47;;;23.03;;
75496;SDS011;64074;47.540;19.072;2022-10-13T23:11:45;42.55;;;23.88;;
75496;SDS011;64074;47.540;19.072;2022-10-13T23:14:58;37.95;;;22.00;;
75496;SDS011;64074;47.540;19.072;2022-10-13T23:18:29;40.65;;;23.40;;
75496;SDS011;64074;47.540;19.072;2022-10-13T23:22:06;39.10;;;21.27;;
75496;SDS011;64074;47.540;19.072;2022-10-13T23:25:23;43.63;;;21.97;;
75496;SDS011;64074;47.540;19.072;2022-10-13T23:28:39;39.75;;;22.83;;
75496;SDS011;64074;47.540;19.072;2022-10-13T23:31:49;41.13;;;22.92;;
75496;SDS011;64074;47.540;19.072;2022-10-13T23:35:05;40.85;;;23.58;;
75496;SDS011;64074;47.540;19.072;2022-10-13T23:38:34;41.10;;;22.53;;
75496;SDS011;64074;47.540;19.072;2022-10-13T23:41:44;38.83;;;22.70;;
75496;SDS011;64074;47.540;19.072;2022-10-13T23:45:23;39.65;;;22.60;;
75496;SDS011;64074;47.540;19.072;2022-10-13T23:48:54;42.80;;;22.23;;
75496;SDS011;64074;47.540;19.072;2022-10-13T23:52:17;38.13;;;22.02;;
75496;SDS011;64074;47.540;19.072;2022-10-13T23:55:27;41.27;;;23.27;;
75496;SDS011;64074;47.540;19.072;2022-10-13T23:58:37;40.97;;;21.83;;
